Terminal Aerodrome Forecast
Issued by NWS

Home | Current Version | Previous Version | Text Only | Print | Product List | Glossary On
Versions: 1 2 3 4 5 6 7 8 9 10 11 12 13
000
FTUS46 KPDT 292320
TAFBDN
TAF
KBDN 292320Z 3000/3024 29008KT P6SM FEW150 BKN250
     FM300400 23005KT P6SM BKN070 BKN200
     FM301800 22007KT P6SM FEW070 FEW200
     FM302100 21011G17KT P6SM FEW200=

USA.gov is the U.S. government's official web portal to all federal, state and local government web resources and services.